sensor_id;sensor_type;location;lat;lon;timestamp;P1;durP1;ratioP1;P2;durP2;ratioP2
70576;SDS011;58138;43.138;24.702;2022-08-21T00:00:30;8.95;;;5.00;;
70576;SDS011;58138;43.138;24.702;2022-08-21T00:02:57;12.23;;;7.10;;
70576;SDS011;58138;43.138;24.702;2022-08-21T00:05:28;12.25;;;6.03;;
70576;SDS011;58138;43.138;24.702;2022-08-21T00:07:55;10.35;;;6.63;;
70576;SDS011;58138;43.138;24.702;2022-08-21T00:10:20;8.05;;;4.57;;
70576;SDS011;58138;43.138;24.702;2022-08-21T00:12:47;8.68;;;5.13;;
70576;SDS011;58138;43.138;24.702;2022-08-21T00:15:15;7.88;;;4.90;;
70576;SDS011;58138;43.138;24.702;2022-08-21T00:17:42;13.88;;;7.20;;
70576;SDS011;58138;43.138;24.702;2022-08-21T00:20:09;11.68;;;7.70;;
70576;SDS011;58138;43.138;24.702;2022-08-21T00:22:35;10.93;;;6.65;;
70576;SDS011;58138;43.138;24.702;2022-08-21T00:25:09;10.18;;;6.60;;
70576;SDS011;58138;43.138;24.702;2022-08-21T00:27:38;9.77;;;6.45;;
70576;SDS011;58138;43.138;24.702;2022-08-21T00:30:08;13.18;;;7.60;;
70576;SDS011;58138;43.138;24.702;2022-08-21T00:32:36;10.88;;;7.22;;
70576;SDS011;58138;43.138;24.702;2022-08-21T00:35:03;16.98;;;6.38;;
70576;SDS011;58138;43.138;24.702;2022-08-21T00:37:33;10.88;;;6.45;;
70576;SDS011;58138;43.138;24.702;2022-08-21T00:39:59;8.07;;;5.57;;
70576;SDS011;58138;43.138;24.702;2022-08-21T00:42:24;11.80;;;6.60;;
70576;SDS011;58138;43.138;24.702;2022-08-21T00:44:51;11.90;;;6.45;;
70576;SDS011;58138;43.138;24.702;2022-08-21T00:47:17;12.10;;;6.70;;
70576;SDS011;58138;43.138;24.702;2022-08-21T00:49:43;14.10;;;6.60;;
70576;SDS011;58138;43.138;24.702;2022-08-21T00:52:10;12.88;;;7.00;;
70576;SDS011;58138;43.138;24.702;2022-08-21T00:54:37;15.85;;;8.18;;
70576;SDS011;58138;43.138;24.702;2022-08-21T00:57:05;15.75;;;9.05;;
70576;SDS011;58138;43.138;24.702;2022-08-21T00:59:35;11.05;;;7.63;;
70576;SDS011;58138;43.138;24.702;2022-08-21T01:02:03;16.92;;;8.65;;
70576;SDS011;58138;43.138;24.702;2022-08-21T01:04:35;15.23;;;7.70;;
70576;SDS011;58138;43.138;24.702;2022-08-21T01:07:01;12.88;;;8.13;;
70576;SDS011;58138;43.138;24.702;2022-08-21T01:09:27;10.13;;;7.75;;
70576;SDS011;58138;43.138;24.702;2022-08-21T01:11:52;16.33;;;7.70;;
70576;SDS011;58138;43.138;24.702;2022-08-21T01:14:18;11.85;;;7.15;;
70576;SDS011;58138;43.138;24.702;2022-08-21T01:16:46;10.38;;;5.65;;
70576;SDS011;58138;43.138;24.702;2022-08-21T01:19:12;15.60;;;7.15;;
70576;SDS011;58138;43.138;24.702;2022-08-21T01:21:39;12.82;;;7.57;;
70576;SDS011;58138;43.138;24.702;2022-08-21T01:24:06;12.25;;;6.95;;
70576;SDS011;58138;43.138;24.702;2022-08-21T01:26:32;13.07;;;6.25;;
70576;SDS011;58138;43.138;24.702;2022-08-21T01:31:31;13.18;;;6.88;;
70576;SDS011;58138;43.138;24.702;2022-08-21T01:33:58;10.38;;;6.43;;
70576;SDS011;58138;43.138;24.702;2022-08-21T01:36:24;8.82;;;6.40;;
70576;SDS011;58138;43.138;24.702;2022-08-21T01:38:50;12.30;;;7.45;;
70576;SDS011;58138;43.138;24.702;2022-08-21T01:41:16;14.38;;;7.95;;
70576;SDS011;58138;43.138;24.702;2022-08-21T01:43:42;13.20;;;7.95;;
70576;SDS011;58138;43.138;24.702;2022-08-21T01:46:08;14.32;;;7.07;;
70576;SDS011;58138;43.138;24.702;2022-08-21T01:48:34;12.05;;;7.75;;
70576;SDS011;58138;43.138;24.702;2022-08-21T01:51:00;14.77;;;7.38;;
70576;SDS011;58138;43.138;24.702;2022-08-21T01:53:26;12.45;;;6.68;;
70576;SDS011;58138;43.138;24.702;2022-08-21T01:55:52;13.63;;;7.28;;
70576;SDS011;58138;43.138;24.702;2022-08-21T01:58:17;12.15;;;7.40;;
70576;SDS011;58138;43.138;24.702;2022-08-21T02:00:43;14.00;;;7.72;;
70576;SDS011;58138;43.138;24.702;2022-08-21T02:03:09;13.88;;;7.07;;
70576;SDS011;58138;43.138;24.702;2022-08-21T02:05:34;14.02;;;7.00;;
70576;SDS011;58138;43.138;24.702;2022-08-21T02:08:00;12.38;;;6.82;;
70576;SDS011;58138;43.138;24.702;2022-08-21T02:10:28;11.90;;;8.70;;
70576;SDS011;58138;43.138;24.702;2022-08-21T02:12:55;16.58;;;8.65;;
70576;SDS011;58138;43.138;24.702;2022-08-21T02:15:22;13.82;;;8.18;;
70576;SDS011;58138;43.138;24.702;2022-08-21T02:17:49;15.15;;;7.63;;
70576;SDS011;58138;43.138;24.702;2022-08-21T02:20:23;15.57;;;7.80;;
70576;SDS011;58138;43.138;24.702;2022-08-21T02:22:50;15.80;;;8.43;;
70576;SDS011;58138;43.138;24.702;2022-08-21T02:25:16;17.52;;;8.25;;
70576;SDS011;58138;43.138;24.702;2022-08-21T02:27:44;14.10;;;8.18;;
70576;SDS011;58138;43.138;24.702;2022-08-21T02:30:12;12.07;;;7.38;;
70576;SDS011;58138;43.138;24.702;2022-08-21T02:32:41;12.27;;;7.22;;
70576;SDS011;58138;43.138;24.702;2022-08-21T02:35:07;14.82;;;7.47;;
70576;SDS011;58138;43.138;24.702;2022-08-21T02:37:34;10.02;;;5.05;;
70576;SDS011;58138;43.138;24.702;2022-08-21T02:40:07;13.32;;;6.10;;
70576;SDS011;58138;43.138;24.702;2022-08-21T02:42:36;11.02;;;6.28;;
70576;SDS011;58138;43.138;24.702;2022-08-21T02:45:01;13.32;;;6.50;;
70576;SDS011;58138;43.138;24.702;2022-08-21T02:47:28;13.88;;;7.88;;
70576;SDS011;58138;43.138;24.702;2022-08-21T02:49:54;14.30;;;7.10;;
70576;SDS011;58138;43.138;24.702;2022-08-21T02:52:19;16.02;;;7.82;;
70576;SDS011;58138;43.138;24.702;2022-08-21T02:54:46;9.57;;;7.38;;
70576;SDS011;58138;43.138;24.702;2022-08-21T02:57:13;11.27;;;6.55;;
70576;SDS011;58138;43.138;24.702;2022-08-21T02:59:38;14.73;;;7.50;;
70576;SDS011;58138;43.138;24.702;2022-08-21T03:02:05;13.55;;;7.55;;
70576;SDS011;58138;43.138;24.702;2022-08-21T03:04:31;15.07;;;8.02;;
70576;SDS011;58138;43.138;24.702;2022-08-21T03:06:56;13.38;;;7.35;;
70576;SDS011;58138;43.138;24.702;2022-08-21T03:09:22;11.95;;;7.30;;
70576;SDS011;58138;43.138;24.702;2022-08-21T03:11:49;19.65;;;7.90;;
70576;SDS011;58138;43.138;24.702;2022-08-21T03:14:16;20.20;;;9.95;;
70576;SDS011;58138;43.138;24.702;2022-08-21T03:16:42;11.02;;;7.40;;
70576;SDS011;58138;43.138;24.702;2022-08-21T03:19:07;13.45;;;7.55;;
70576;SDS011;58138;43.138;24.702;2022-08-21T03:21:36;11.23;;;6.50;;
70576;SDS011;58138;43.138;24.702;2022-08-21T03:24:04;19.42;;;7.40;;
70576;SDS011;58138;43.138;24.702;2022-08-21T03:26:31;12.65;;;8.20;;
70576;SDS011;58138;43.138;24.702;2022-08-21T03:28:57;12.98;;;8.18;;
70576;SDS011;58138;43.138;24.702;2022-08-21T03:31:23;21.17;;;8.85;;
70576;SDS011;58138;43.138;24.702;2022-08-21T03:33:49;15.35;;;9.00;;
70576;SDS011;58138;43.138;24.702;2022-08-21T03:36:15;16.38;;;8.68;;
70576;SDS011;58138;43.138;24.702;2022-08-21T03:38:41;17.77;;;8.60;;
70576;SDS011;58138;43.138;24.702;2022-08-21T03:41:07;19.52;;;9.88;;
70576;SDS011;58138;43.138;24.702;2022-08-21T03:43:33;14.55;;;7.85;;
70576;SDS011;58138;43.138;24.702;2022-08-21T03:46:03;15.88;;;9.40;;
70576;SDS011;58138;43.138;24.702;2022-08-21T03:48:29;15.75;;;9.02;;
70576;SDS011;58138;43.138;24.702;2022-08-21T03:50:54;15.02;;;9.07;;
70576;SDS011;58138;43.138;24.702;2022-08-21T03:53:21;15.27;;;9.80;;
70576;SDS011;58138;43.138;24.702;2022-08-21T03:55:48;19.85;;;12.32;;
70576;SDS011;58138;43.138;24.702;2022-08-21T03:58:16;10.48;;;8.13;;
70576;SDS011;58138;43.138;24.702;2022-08-21T04:00:46;13.38;;;9.95;;
70576;SDS011;58138;43.138;24.702;2022-08-21T04:03:14;18.23;;;9.43;;
70576;SDS011;58138;43.138;24.702;2022-08-21T04:05:40;14.00;;;7.47;;
70576;SDS011;58138;43.138;24.702;2022-08-21T04:08:06;12.60;;;7.40;;
70576;SDS011;58138;43.138;24.702;2022-08-21T04:10:33;15.60;;;7.57;;
70576;SDS011;58138;43.138;24.702;2022-08-21T04:13:00;16.38;;;8.00;;
70576;SDS011;58138;43.138;24.702;2022-08-21T04:15:26;12.88;;;7.30;;
70576;SDS011;58138;43.138;24.702;2022-08-21T04:17:52;13.18;;;7.70;;
70576;SDS011;58138;43.138;24.702;2022-08-21T04:20:18;15.30;;;7.63;;
70576;SDS011;58138;43.138;24.702;2022-08-21T04:22:44;14.45;;;8.50;;
70576;SDS011;58138;43.138;24.702;2022-08-21T04:25:11;17.20;;;7.68;;
70576;SDS011;58138;43.138;24.702;2022-08-21T04:27:37;13.43;;;7.85;;
70576;SDS011;58138;43.138;24.702;2022-08-21T04:30:05;15.88;;;8.50;;
70576;SDS011;58138;43.138;24.702;2022-08-21T04:32:31;14.63;;;7.35;;
70576;SDS011;58138;43.138;24.702;2022-08-21T04:35:01;18.02;;;8.77;;
70576;SDS011;58138;43.138;24.702;2022-08-21T04:37:29;16.77;;;8.63;;
70576;SDS011;58138;43.138;24.702;2022-08-21T04:39:54;14.55;;;7.68;;
70576;SDS011;58138;43.138;24.702;2022-08-21T04:42:23;17.65;;;7.72;;
70576;SDS011;58138;43.138;24.702;2022-08-21T04:44:51;29.98;;;19.90;;
70576;SDS011;58138;43.138;24.702;2022-08-21T04:47:17;20.48;;;11.07;;
70576;SDS011;58138;43.138;24.702;2022-08-21T04:49:43;11.35;;;7.13;;
70576;SDS011;58138;43.138;24.702;2022-08-21T04:52:11;15.88;;;7.40;;
70576;SDS011;58138;43.138;24.702;2022-08-21T04:54:38;13.18;;;7.07;;
70576;SDS011;58138;43.138;24.702;2022-08-21T04:57:06;12.35;;;8.63;;
70576;SDS011;58138;43.138;24.702;2022-08-21T04:59:51;19.25;;;9.48;;
70576;SDS011;58138;43.138;24.702;2022-08-21T05:02:20;16.17;;;9.05;;
70576;SDS011;58138;43.138;24.702;2022-08-21T05:04:48;13.80;;;7.68;;
70576;SDS011;58138;43.138;24.702;2022-08-21T05:07:17;15.65;;;8.65;;
70576;SDS011;58138;43.138;24.702;2022-08-21T05:09:45;16.55;;;8.00;;
70576;SDS011;58138;43.138;24.702;2022-08-21T05:12:11;15.20;;;8.02;;
70576;SDS011;58138;43.138;24.702;2022-08-21T05:14:37;14.25;;;8.63;;
70576;SDS011;58138;43.138;24.702;2022-08-21T05:17:02;12.40;;;8.77;;
70576;SDS011;58138;43.138;24.702;2022-08-21T05:19:29;19.75;;;8.82;;
70576;SDS011;58138;43.138;24.702;2022-08-21T05:21:55;18.33;;;9.15;;
70576;SDS011;58138;43.138;24.702;2022-08-21T05:24:20;13.00;;;9.07;;
70576;SDS011;58138;43.138;24.702;2022-08-21T05:26:46;12.75;;;7.15;;
70576;SDS011;58138;43.138;24.702;2022-08-21T05:29:12;12.55;;;7.45;;
70576;SDS011;58138;43.138;24.702;2022-08-21T05:31:39;15.95;;;7.72;;
70576;SDS011;58138;43.138;24.702;2022-08-21T05:34:04;12.65;;;7.97;;
70576;SDS011;58138;43.138;24.702;2022-08-21T05:36:30;18.85;;;9.25;;
70576;SDS011;58138;43.138;24.702;2022-08-21T05:38:55;12.23;;;7.53;;
70576;SDS011;58138;43.138;24.702;2022-08-21T05:41:21;13.38;;;7.28;;
70576;SDS011;58138;43.138;24.702;2022-08-21T05:43:47;11.93;;;7.40;;
70576;SDS011;58138;43.138;24.702;2022-08-21T05:46:12;15.13;;;8.40;;
70576;SDS011;58138;43.138;24.702;2022-08-21T05:48:38;15.75;;;9.35;;
70576;SDS011;58138;43.138;24.702;2022-08-21T05:51:10;14.27;;;8.20;;
70576;SDS011;58138;43.138;24.702;2022-08-21T05:53:37;13.82;;;7.65;;
70576;SDS011;58138;43.138;24.702;2022-08-21T05:56:03;17.73;;;7.88;;
70576;SDS011;58138;43.138;24.702;2022-08-21T05:58:30;12.30;;;7.82;;
70576;SDS011;58138;43.138;24.702;2022-08-21T06:00:57;17.17;;;7.75;;
70576;SDS011;58138;43.138;24.702;2022-08-21T06:03:24;13.35;;;8.05;;
70576;SDS011;58138;43.138;24.702;2022-08-21T06:05:52;16.30;;;8.07;;
70576;SDS011;58138;43.138;24.702;2022-08-21T06:08:19;16.73;;;8.52;;
70576;SDS011;58138;43.138;24.702;2022-08-21T06:10:54;14.48;;;7.53;;
70576;SDS011;58138;43.138;24.702;2022-08-21T06:13:24;14.07;;;6.85;;
70576;SDS011;58138;43.138;24.702;2022-08-21T06:16:01;14.10;;;6.65;;
70576;SDS011;58138;43.138;24.702;2022-08-21T06:18:37;12.30;;;6.60;;
70576;SDS011;58138;43.138;24.702;2022-08-21T06:21:02;10.88;;;6.72;;
70576;SDS011;58138;43.138;24.702;2022-08-21T06:23:28;12.70;;;6.68;;
70576;SDS011;58138;43.138;24.702;2022-08-21T06:25:54;11.80;;;6.53;;
70576;SDS011;58138;43.138;24.702;2022-08-21T06:28:19;11.35;;;6.80;;
70576;SDS011;58138;43.138;24.702;2022-08-21T06:30:45;12.63;;;6.10;;
70576;SDS011;58138;43.138;24.702;2022-08-21T06:33:10;12.32;;;7.10;;
70576;SDS011;58138;43.138;24.702;2022-08-21T06:35:36;11.15;;;5.97;;
70576;SDS011;58138;43.138;24.702;2022-08-21T06:38:02;8.80;;;5.75;;
70576;SDS011;58138;43.138;24.702;2022-08-21T06:40:28;11.07;;;6.78;;
70576;SDS011;58138;43.138;24.702;2022-08-21T06:42:54;13.57;;;6.68;;
70576;SDS011;58138;43.138;24.702;2022-08-21T06:45:20;11.27;;;6.45;;
70576;SDS011;58138;43.138;24.702;2022-08-21T06:47:46;16.00;;;6.93;;
70576;SDS011;58138;43.138;24.702;2022-08-21T06:50:12;12.30;;;5.90;;
70576;SDS011;58138;43.138;24.702;2022-08-21T06:52:38;12.48;;;6.10;;
70576;SDS011;58138;43.138;24.702;2022-08-21T06:55:04;15.25;;;6.90;;
70576;SDS011;58138;43.138;24.702;2022-08-21T06:57:31;12.40;;;6.35;;
70576;SDS011;58138;43.138;24.702;2022-08-21T06:59:57;11.93;;;6.55;;
70576;SDS011;58138;43.138;24.702;2022-08-21T07:02:22;13.80;;;6.68;;
70576;SDS011;58138;43.138;24.702;2022-08-21T07:04:48;14.30;;;6.30;;
70576;SDS011;58138;43.138;24.702;2022-08-21T07:07:16;12.68;;;6.25;;
70576;SDS011;58138;43.138;24.702;2022-08-21T07:09:42;13.98;;;6.32;;
70576;SDS011;58138;43.138;24.702;2022-08-21T07:12:07;14.60;;;6.30;;
70576;SDS011;58138;43.138;24.702;2022-08-21T07:14:33;11.88;;;5.95;;
70576;SDS011;58138;43.138;24.702;2022-08-21T07:16:58;10.50;;;6.47;;
70576;SDS011;58138;43.138;24.702;2022-08-21T07:19:24;13.95;;;5.85;;
70576;SDS011;58138;43.138;24.702;2022-08-21T07:21:57;9.23;;;5.40;;
70576;SDS011;58138;43.138;24.702;2022-08-21T07:24:24;16.92;;;6.03;;
70576;SDS011;58138;43.138;24.702;2022-08-21T07:26:49;9.68;;;6.22;;
70576;SDS011;58138;43.138;24.702;2022-08-21T07:29:15;14.13;;;5.95;;
70576;SDS011;58138;43.138;24.702;2022-08-21T07:31:40;16.33;;;7.18;;
70576;SDS011;58138;43.138;24.702;2022-08-21T07:34:06;12.75;;;5.88;;
70576;SDS011;58138;43.138;24.702;2022-08-21T07:36:33;11.60;;;5.47;;
70576;SDS011;58138;43.138;24.702;2022-08-21T07:38:58;12.00;;;5.78;;
70576;SDS011;58138;43.138;24.702;2022-08-21T07:43:59;12.45;;;5.40;;
70576;SDS011;58138;43.138;24.702;2022-08-21T07:46:27;11.48;;;6.00;;
70576;SDS011;58138;43.138;24.702;2022-08-21T07:48:53;11.35;;;5.50;;
70576;SDS011;58138;43.138;24.702;2022-08-21T07:51:20;9.73;;;5.30;;
70576;SDS011;58138;43.138;24.702;2022-08-21T07:53:51;12.52;;;5.28;;
70576;SDS011;58138;43.138;24.702;2022-08-21T07:56:18;14.43;;;4.88;;
70576;SDS011;58138;43.138;24.702;2022-08-21T07:58:44;19.65;;;5.57;;
70576;SDS011;58138;43.138;24.702;2022-08-21T08:01:10;23.23;;;15.02;;
70576;SDS011;58138;43.138;24.702;2022-08-21T08:03:36;14.35;;;5.43;;
70576;SDS011;58138;43.138;24.702;2022-08-21T08:06:04;8.63;;;5.40;;
70576;SDS011;58138;43.138;24.702;2022-08-21T08:08:31;10.75;;;5.68;;
70576;SDS011;58138;43.138;24.702;2022-08-21T08:10:57;13.90;;;6.00;;
70576;SDS011;58138;43.138;24.702;2022-08-21T08:13:23;13.45;;;6.38;;
70576;SDS011;58138;43.138;24.702;2022-08-21T08:15:49;10.02;;;5.80;;
70576;SDS011;58138;43.138;24.702;2022-08-21T08:18:15;12.90;;;5.97;;
70576;SDS011;58138;43.138;24.702;2022-08-21T08:20:43;11.63;;;6.30;;
70576;SDS011;58138;43.138;24.702;2022-08-21T08:23:11;12.45;;;6.80;;
70576;SDS011;58138;43.138;24.702;2022-08-21T08:25:37;12.13;;;6.32;;
70576;SDS011;58138;43.138;24.702;2022-08-21T08:28:04;12.23;;;6.00;;
70576;SDS011;58138;43.138;24.702;2022-08-21T08:30:30;12.00;;;5.95;;
70576;SDS011;58138;43.138;24.702;2022-08-21T08:33:00;21.55;;;10.25;;
70576;SDS011;58138;43.138;24.702;2022-08-21T08:35:33;16.08;;;6.90;;
70576;SDS011;58138;43.138;24.702;2022-08-21T08:37:59;12.77;;;6.28;;
70576;SDS011;58138;43.138;24.702;2022-08-21T08:40:33;18.45;;;8.05;;
70576;SDS011;58138;43.138;24.702;2022-08-21T08:43:10;16.27;;;7.75;;
70576;SDS011;58138;43.138;24.702;2022-08-21T08:45:40;14.18;;;6.97;;
70576;SDS011;58138;43.138;24.702;2022-08-21T08:48:13;13.55;;;6.45;;
70576;SDS011;58138;43.138;24.702;2022-08-21T08:50:41;12.48;;;7.13;;
70576;SDS011;58138;43.138;24.702;2022-08-21T08:53:11;12.88;;;6.82;;
70576;SDS011;58138;43.138;24.702;2022-08-21T08:55:42;12.32;;;6.97;;
70576;SDS011;58138;43.138;24.702;2022-08-21T08:58:12;15.35;;;6.38;;
70576;SDS011;58138;43.138;24.702;2022-08-21T09:00:42;12.60;;;6.63;;
70576;SDS011;58138;43.138;24.702;2022-08-21T09:03:09;16.23;;;6.75;;
70576;SDS011;58138;43.138;24.702;2022-08-21T09:10:41;12.15;;;6.50;;
70576;SDS011;58138;43.138;24.702;2022-08-21T09:13:31;15.55;;;6.00;;
70576;SDS011;58138;43.138;24.702;2022-08-21T09:27:10;11.93;;;6.22;;
70576;SDS011;58138;43.138;24.702;2022-08-21T09:29:46;10.75;;;6.03;;
70576;SDS011;58138;43.138;24.702;2022-08-21T09:32:26;13.27;;;6.43;;
70576;SDS011;58138;43.138;24.702;2022-08-21T09:40:19;14.48;;;6.63;;
70576;SDS011;58138;43.138;24.702;2022-08-21T09:43:02;19.75;;;13.68;;
70576;SDS011;58138;43.138;24.702;2022-08-21T09:45:31;12.23;;;6.90;;
70576;SDS011;58138;43.138;24.702;2022-08-21T09:48:07;10.50;;;6.20;;
70576;SDS011;58138;43.138;24.702;2022-08-21T09:51:05;14.93;;;6.43;;
70576;SDS011;58138;43.138;24.702;2022-08-21T09:53:31;15.77;;;7.13;;
70576;SDS011;58138;43.138;24.702;2022-08-21T09:58:50;11.23;;;6.80;;
70576;SDS011;58138;43.138;24.702;2022-08-21T10:01:18;12.57;;;6.88;;
70576;SDS011;58138;43.138;24.702;2022-08-21T10:03:45;20.98;;;6.95;;
70576;SDS011;58138;43.138;24.702;2022-08-21T10:06:21;15.55;;;6.85;;
70576;SDS011;58138;43.138;24.702;2022-08-21T10:08:48;11.30;;;6.75;;
70576;SDS011;58138;43.138;24.702;2022-08-21T10:11:14;16.13;;;7.57;;
70576;SDS011;58138;43.138;24.702;2022-08-21T10:16:28;16.60;;;6.63;;
70576;SDS011;58138;43.138;24.702;2022-08-21T10:21:27;16.40;;;6.50;;
70576;SDS011;58138;43.138;24.702;2022-08-21T10:26:55;10.23;;;5.40;;
70576;SDS011;58138;43.138;24.702;2022-08-21T10:35:10;14.57;;;5.50;;
70576;SDS011;58138;43.138;24.702;2022-08-21T10:40:37;10.32;;;5.15;;
70576;SDS011;58138;43.138;24.702;2022-08-21T10:48:33;11.25;;;4.88;;
70576;SDS011;58138;43.138;24.702;2022-08-21T10:54:49;11.30;;;4.93;;
70576;SDS011;58138;43.138;24.702;2022-08-21T10:56:51;9.98;;;5.32;;
70576;SDS011;58138;43.138;24.702;2022-08-21T11:02:08;11.82;;;5.10;;
70576;SDS011;58138;43.138;24.702;2022-08-21T11:04:45;9.15;;;4.72;;
70576;SDS011;58138;43.138;24.702;2022-08-21T11:08:01;10.57;;;5.15;;
70576;SDS011;58138;43.138;24.702;2022-08-21T11:10:05;10.32;;;5.40;;
70576;SDS011;58138;43.138;24.702;2022-08-21T11:12:43;12.50;;;5.88;;
70576;SDS011;58138;43.138;24.702;2022-08-21T11:15:29;11.77;;;5.68;;
70576;SDS011;58138;43.138;24.702;2022-08-21T11:23:58;8.65;;;4.90;;
70576;SDS011;58138;43.138;24.702;2022-08-21T11:26:36;13.88;;;4.85;;
70576;SDS011;58138;43.138;24.702;2022-08-21T11:29:09;10.40;;;4.30;;
70576;SDS011;58138;43.138;24.702;2022-08-21T11:40:02;9.68;;;4.72;;
70576;SDS011;58138;43.138;24.702;2022-08-21T11:45:14;8.77;;;4.30;;
70576;SDS011;58138;43.138;24.702;2022-08-21T11:50:28;7.97;;;4.55;;
70576;SDS011;58138;43.138;24.702;2022-08-21T11:53:01;9.55;;;4.43;;
70576;SDS011;58138;43.138;24.702;2022-08-21T11:55:50;10.25;;;4.07;;
70576;SDS011;58138;43.138;24.702;2022-08-21T11:58:26;10.43;;;5.60;;
70576;SDS011;58138;43.138;24.702;2022-08-21T12:00:57;12.88;;;4.43;;
70576;SDS011;58138;43.138;24.702;2022-08-21T12:05:55;9.68;;;4.50;;
70576;SDS011;58138;43.138;24.702;2022-08-21T12:16:46;12.00;;;4.72;;
70576;SDS011;58138;43.138;24.702;2022-08-21T12:26:52;11.77;;;4.18;;
70576;SDS011;58138;43.138;24.702;2022-08-21T12:29:31;11.50;;;4.50;;
70576;SDS011;58138;43.138;24.702;2022-08-21T12:32:44;9.82;;;3.95;;
70576;SDS011;58138;43.138;24.702;2022-08-21T12:35:15;7.75;;;4.07;;
70576;SDS011;58138;43.138;24.702;2022-08-21T12:37:47;7.43;;;4.95;;
70576;SDS011;58138;43.138;24.702;2022-08-21T12:42:55;8.60;;;3.50;;
70576;SDS011;58138;43.138;24.702;2022-08-21T12:48:10;10.00;;;3.80;;
70576;SDS011;58138;43.138;24.702;2022-08-21T12:50:55;10.32;;;3.85;;
70576;SDS011;58138;43.138;24.702;2022-08-21T12:53:30;8.40;;;3.20;;
70576;SDS011;58138;43.138;24.702;2022-08-21T12:56:03;9.73;;;3.60;;
70576;SDS011;58138;43.138;24.702;2022-08-21T12:58:33;8.13;;;3.15;;
70576;SDS011;58138;43.138;24.702;2022-08-21T13:01:01;9.13;;;3.88;;
70576;SDS011;58138;43.138;24.702;2022-08-21T13:03:30;10.70;;;4.05;;
70576;SDS011;58138;43.138;24.702;2022-08-21T13:05:56;10.38;;;4.25;;
70576;SDS011;58138;43.138;24.702;2022-08-21T13:08:23;7.65;;;4.28;;
70576;SDS011;58138;43.138;24.702;2022-08-21T13:10:55;10.23;;;3.88;;
70576;SDS011;58138;43.138;24.702;2022-08-21T13:13:24;10.65;;;3.47;;
70576;SDS011;58138;43.138;24.702;2022-08-21T13:15:55;7.43;;;3.47;;
70576;SDS011;58138;43.138;24.702;2022-08-21T13:18:24;8.07;;;3.72;;
70576;SDS011;58138;43.138;24.702;2022-08-21T13:20:50;14.07;;;5.70;;
70576;SDS011;58138;43.138;24.702;2022-08-21T13:23:23;12.85;;;3.90;;
70576;SDS011;58138;43.138;24.702;2022-08-21T13:25:49;12.85;;;4.60;;
70576;SDS011;58138;43.138;24.702;2022-08-21T13:28:15;12.13;;;4.47;;
70576;SDS011;58138;43.138;24.702;2022-08-21T13:30:41;9.20;;;4.20;;
70576;SDS011;58138;43.138;24.702;2022-08-21T13:33:09;9.45;;;4.30;;
70576;SDS011;58138;43.138;24.702;2022-08-21T13:35:45;10.95;;;4.53;;
70576;SDS011;58138;43.138;24.702;2022-08-21T13:38:12;7.72;;;4.22;;
70576;SDS011;58138;43.138;24.702;2022-08-21T13:40:46;11.88;;;3.88;;
70576;SDS011;58138;43.138;24.702;2022-08-21T13:43:15;9.75;;;4.30;;
70576;SDS011;58138;43.138;24.702;2022-08-21T13:45:44;13.95;;;4.43;;
70576;SDS011;58138;43.138;24.702;2022-08-21T13:48:13;14.38;;;4.35;;
70576;SDS011;58138;43.138;24.702;2022-08-21T13:50:39;13.15;;;6.75;;
70576;SDS011;58138;43.138;24.702;2022-08-21T13:53:07;12.02;;;5.82;;
70576;SDS011;58138;43.138;24.702;2022-08-21T13:56:04;16.73;;;4.80;;
70576;SDS011;58138;43.138;24.702;2022-08-21T13:58:31;11.80;;;4.18;;
70576;SDS011;58138;43.138;24.702;2022-08-21T14:00:59;11.18;;;5.50;;
70576;SDS011;58138;43.138;24.702;2022-08-21T14:03:37;10.55;;;5.07;;
70576;SDS011;58138;43.138;24.702;2022-08-21T14:06:11;12.70;;;4.55;;
70576;SDS011;58138;43.138;24.702;2022-08-21T14:08:38;14.02;;;4.60;;
70576;SDS011;58138;43.138;24.702;2022-08-21T14:11:09;12.95;;;4.38;;
70576;SDS011;58138;43.138;24.702;2022-08-21T14:13:40;11.48;;;4.20;;
70576;SDS011;58138;43.138;24.702;2022-08-21T14:18:54;9.00;;;3.97;;
70576;SDS011;58138;43.138;24.702;2022-08-21T14:21:38;9.60;;;4.30;;
70576;SDS011;58138;43.138;24.702;2022-08-21T14:24:13;11.15;;;4.68;;
70576;SDS011;58138;43.138;24.702;2022-08-21T14:26:54;11.77;;;4.22;;
70576;SDS011;58138;43.138;24.702;2022-08-21T14:29:22;12.18;;;4.82;;
70576;SDS011;58138;43.138;24.702;2022-08-21T14:31:56;12.80;;;6.30;;
70576;SDS011;58138;43.138;24.702;2022-08-21T14:34:24;10.45;;;4.68;;
70576;SDS011;58138;43.138;24.702;2022-08-21T14:37:00;12.68;;;4.88;;
70576;SDS011;58138;43.138;24.702;2022-08-21T14:39:26;10.05;;;4.28;;
70576;SDS011;58138;43.138;24.702;2022-08-21T14:41:55;11.38;;;4.45;;
70576;SDS011;58138;43.138;24.702;2022-08-21T14:44:22;9.77;;;4.50;;
70576;SDS011;58138;43.138;24.702;2022-08-21T14:46:47;11.98;;;4.93;;
70576;SDS011;58138;43.138;24.702;2022-08-21T14:49:13;12.82;;;5.38;;
70576;SDS011;58138;43.138;24.702;2022-08-21T14:51:41;11.15;;;5.10;;
70576;SDS011;58138;43.138;24.702;2022-08-21T14:54:07;12.35;;;5.72;;
70576;SDS011;58138;43.138;24.702;2022-08-21T14:56:40;9.82;;;5.07;;
70576;SDS011;58138;43.138;24.702;2022-08-21T14:59:26;10.70;;;5.57;;
70576;SDS011;58138;43.138;24.702;2022-08-21T15:01:51;10.32;;;5.20;;
70576;SDS011;58138;43.138;24.702;2022-08-21T15:04:17;16.67;;;4.85;;
70576;SDS011;58138;43.138;24.702;2022-08-21T15:06:43;10.23;;;5.18;;
70576;SDS011;58138;43.138;24.702;2022-08-21T15:09:09;8.50;;;4.82;;
70576;SDS011;58138;43.138;24.702;2022-08-21T15:11:34;12.98;;;5.18;;
70576;SDS011;58138;43.138;24.702;2022-08-21T15:14:00;10.05;;;5.15;;
70576;SDS011;58138;43.138;24.702;2022-08-21T15:16:28;13.02;;;4.75;;
70576;SDS011;58138;43.138;24.702;2022-08-21T15:18:55;10.55;;;4.32;;
70576;SDS011;58138;43.138;24.702;2022-08-21T15:21:21;18.90;;;4.97;;
70576;SDS011;58138;43.138;24.702;2022-08-21T15:23:46;14.98;;;5.50;;
70576;SDS011;58138;43.138;24.702;2022-08-21T15:26:12;9.32;;;5.15;;
70576;SDS011;58138;43.138;24.702;2022-08-21T15:28:38;12.68;;;5.38;;
70576;SDS011;58138;43.138;24.702;2022-08-21T15:31:03;13.02;;;5.70;;
70576;SDS011;58138;43.138;24.702;2022-08-21T15:33:29;14.10;;;6.32;;
70576;SDS011;58138;43.138;24.702;2022-08-21T15:35:55;15.50;;;5.90;;
70576;SDS011;58138;43.138;24.702;2022-08-21T15:38:20;11.65;;;5.60;;
70576;SDS011;58138;43.138;24.702;2022-08-21T15:40:46;14.60;;;6.07;;
70576;SDS011;58138;43.138;24.702;2022-08-21T15:43:23;13.60;;;4.90;;
70576;SDS011;58138;43.138;24.702;2022-08-21T15:45:53;8.60;;;4.30;;
70576;SDS011;58138;43.138;24.702;2022-08-21T15:48:19;11.65;;;4.55;;
70576;SDS011;58138;43.138;24.702;2022-08-21T15:50:44;9.82;;;4.18;;
70576;SDS011;58138;43.138;24.702;2022-08-21T15:53:10;15.30;;;4.50;;
70576;SDS011;58138;43.138;24.702;2022-08-21T15:55:36;12.07;;;4.93;;
70576;SDS011;58138;43.138;24.702;2022-08-21T15:58:01;8.95;;;4.25;;
70576;SDS011;58138;43.138;24.702;2022-08-21T16:00:33;9.00;;;4.03;;
70576;SDS011;58138;43.138;24.702;2022-08-21T16:03:00;10.43;;;4.20;;
70576;SDS011;58138;43.138;24.702;2022-08-21T16:05:29;12.80;;;4.70;;
70576;SDS011;58138;43.138;24.702;2022-08-21T16:07:56;11.83;;;4.83;;
70576;SDS011;58138;43.138;24.702;2022-08-21T16:10:23;11.68;;;5.20;;
70576;SDS011;58138;43.138;24.702;2022-08-21T16:12:50;12.18;;;5.85;;
70576;SDS011;58138;43.138;24.702;2022-08-21T16:15:19;16.05;;;6.05;;